sensor_id;sensor_type;location;lat;lon;timestamp;P1;durP1;ratioP1;P2;durP2;ratioP2
67869;SDS011;54673;52.262;6.830;2023-03-14T00:01:13;3.40;;;1.60;;
67869;SDS011;54673;52.262;6.830;2023-03-14T00:03:40;3.07;;;1.80;;
67869;SDS011;54673;52.262;6.830;2023-03-14T00:06:07;4.10;;;1.30;;
67869;SDS011;54673;52.262;6.830;2023-03-14T00:08:34;3.10;;;1.58;;
67869;SDS011;54673;52.262;6.830;2023-03-14T00:11:03;2.50;;;1.70;;
67869;SDS011;54673;52.262;6.830;2023-03-14T00:13:33;1.80;;;1.33;;
67869;SDS011;54673;52.262;6.830;2023-03-14T00:16:03;3.13;;;1.60;;
67869;SDS011;54673;52.262;6.830;2023-03-14T00:18:38;3.05;;;1.60;;
67869;SDS011;54673;52.262;6.830;2023-03-14T00:21:05;3.27;;;1.47;;
67869;SDS011;54673;52.262;6.830;2023-03-14T00:23:32;2.03;;;1.40;;
67869;SDS011;54673;52.262;6.830;2023-03-14T00:26:02;2.67;;;1.48;;
67869;SDS011;54673;52.262;6.830;2023-03-14T00:28:29;3.80;;;1.80;;
67869;SDS011;54673;52.262;6.830;2023-03-14T00:30:55;3.30;;;1.80;;
67869;SDS011;54673;52.262;6.830;2023-03-14T00:33:21;3.08;;;1.55;;
67869;SDS011;54673;52.262;6.830;2023-03-14T00:35:53;3.28;;;1.27;;
67869;SDS011;54673;52.262;6.830;2023-03-14T00:38:19;2.30;;;1.40;;
67869;SDS011;54673;52.262;6.830;2023-03-14T00:40:44;2.50;;;1.30;;
67869;SDS011;54673;52.262;6.830;2023-03-14T00:43:10;2.50;;;1.30;;
67869;SDS011;54673;52.262;6.830;2023-03-14T00:45:35;2.77;;;1.40;;
67869;SDS011;54673;52.262;6.830;2023-03-14T00:48:01;2.53;;;1.10;;
67869;SDS011;54673;52.262;6.830;2023-03-14T00:50:27;3.70;;;1.40;;
67869;SDS011;54673;52.262;6.830;2023-03-14T00:52:52;4.60;;;1.40;;
67869;SDS011;54673;52.262;6.830;2023-03-14T00:55:18;2.37;;;1.30;;
67869;SDS011;54673;52.262;6.830;2023-03-14T00:57:43;2.22;;;1.13;;
67869;SDS011;54673;52.262;6.830;2023-03-14T01:00:09;3.33;;;1.60;;
67869;SDS011;54673;52.262;6.830;2023-03-14T01:02:37;1.90;;;0.90;;
67869;SDS011;54673;52.262;6.830;2023-03-14T01:05:02;3.60;;;1.20;;
67869;SDS011;54673;52.262;6.830;2023-03-14T01:07:28;2.78;;;1.25;;
67869;SDS011;54673;52.262;6.830;2023-03-14T01:09:54;2.40;;;1.20;;
67869;SDS011;54673;52.262;6.830;2023-03-14T01:12:20;4.47;;;1.33;;
67869;SDS011;54673;52.262;6.830;2023-03-14T01:14:45;3.00;;;1.30;;
67869;SDS011;54673;52.262;6.830;2023-03-14T01:17:11;2.10;;;1.10;;
67869;SDS011;54673;52.262;6.830;2023-03-14T01:19:36;2.38;;;1.40;;
67869;SDS011;54673;52.262;6.830;2023-03-14T01:22:02;2.40;;;1.20;;
67869;SDS011;54673;52.262;6.830;2023-03-14T01:24:28;2.53;;;1.23;;
67869;SDS011;54673;52.262;6.830;2023-03-14T01:26:53;2.80;;;1.40;;
67869;SDS011;54673;52.262;6.830;2023-03-14T01:29:19;2.90;;;1.37;;
67869;SDS011;54673;52.262;6.830;2023-03-14T01:31:44;1.50;;;1.35;;
67869;SDS011;54673;52.262;6.830;2023-03-14T01:34:10;2.70;;;1.30;;
67869;SDS011;54673;52.262;6.830;2023-03-14T01:36:35;2.40;;;1.10;;
67869;SDS011;54673;52.262;6.830;2023-03-14T01:39:02;4.38;;;1.08;;
67869;SDS011;54673;52.262;6.830;2023-03-14T01:41:28;1.90;;;1.00;;
67869;SDS011;54673;52.262;6.830;2023-03-14T01:43:53;2.60;;;1.20;;
67869;SDS011;54673;52.262;6.830;2023-03-14T01:46:26;2.13;;;1.30;;
67869;SDS011;54673;52.262;6.830;2023-03-14T01:51:42;3.92;;;1.55;;
67869;SDS011;54673;52.262;6.830;2023-03-14T01:54:14;1.57;;;1.10;;
67869;SDS011;54673;52.262;6.830;2023-03-14T01:57:04;2.25;;;1.25;;
67869;SDS011;54673;52.262;6.830;2023-03-14T01:59:51;2.20;;;1.20;;
67869;SDS011;54673;52.262;6.830;2023-03-14T02:02:21;2.63;;;1.30;;
67869;SDS011;54673;52.262;6.830;2023-03-14T02:04:48;3.47;;;1.30;;
67869;SDS011;54673;52.262;6.830;2023-03-14T02:10:06;1.92;;;1.05;;
67869;SDS011;54673;52.262;6.830;2023-03-14T02:12:32;4.05;;;1.23;;
67869;SDS011;54673;52.262;6.830;2023-03-14T02:14:58;4.20;;;1.53;;
67869;SDS011;54673;52.262;6.830;2023-03-14T02:17:24;1.77;;;0.93;;
67869;SDS011;54673;52.262;6.830;2023-03-14T02:22:15;1.50;;;1.13;;
67869;SDS011;54673;52.262;6.830;2023-03-14T02:24:44;3.08;;;1.13;;
67869;SDS011;54673;52.262;6.830;2023-03-14T02:27:16;1.77;;;1.20;;
67869;SDS011;54673;52.262;6.830;2023-03-14T02:29:45;2.50;;;1.40;;
67869;SDS011;54673;52.262;6.830;2023-03-14T02:32:16;2.25;;;1.05;;
67869;SDS011;54673;52.262;6.830;2023-03-14T02:34:43;2.57;;;1.00;;
67869;SDS011;54673;52.262;6.830;2023-03-14T02:37:12;3.90;;;1.20;;
67869;SDS011;54673;52.262;6.830;2023-03-14T02:39:41;2.20;;;1.00;;
67869;SDS011;54673;52.262;6.830;2023-03-14T02:42:14;2.53;;;1.20;;
67869;SDS011;54673;52.262;6.830;2023-03-14T02:47:44;2.00;;;1.03;;
67869;SDS011;54673;52.262;6.830;2023-03-14T02:50:17;3.03;;;1.33;;
67869;SDS011;54673;52.262;6.830;2023-03-14T02:52:45;1.65;;;0.98;;
67869;SDS011;54673;52.262;6.830;2023-03-14T02:55:11;1.93;;;0.90;;
67869;SDS011;54673;52.262;6.830;2023-03-14T02:57:37;2.95;;;1.30;;
67869;SDS011;54673;52.262;6.830;2023-03-14T03:00:03;1.50;;;1.07;;
67869;SDS011;54673;52.262;6.830;2023-03-14T03:02:29;4.10;;;1.30;;
67869;SDS011;54673;52.262;6.830;2023-03-14T03:04:55;2.45;;;1.10;;
67869;SDS011;54673;52.262;6.830;2023-03-14T03:07:21;1.93;;;1.00;;
67869;SDS011;54673;52.262;6.830;2023-03-14T03:09:47;1.88;;;0.90;;
67869;SDS011;54673;52.262;6.830;2023-03-14T03:12:12;1.57;;;0.90;;
67869;SDS011;54673;52.262;6.830;2023-03-14T03:14:38;1.57;;;1.03;;
67869;SDS011;54673;52.262;6.830;2023-03-14T03:17:04;3.50;;;1.33;;
67869;SDS011;54673;52.262;6.830;2023-03-14T03:19:31;2.58;;;1.20;;
67869;SDS011;54673;52.262;6.830;2023-03-14T03:21:57;3.10;;;1.20;;
67869;SDS011;54673;52.262;6.830;2023-03-14T03:24:23;1.50;;;1.10;;
67869;SDS011;54673;52.262;6.830;2023-03-14T03:26:50;2.67;;;0.88;;
67869;SDS011;54673;52.262;6.830;2023-03-14T03:29:16;3.43;;;1.10;;
67869;SDS011;54673;52.262;6.830;2023-03-14T03:31:42;1.83;;;0.95;;
67869;SDS011;54673;52.262;6.830;2023-03-14T03:34:07;3.27;;;1.00;;
67869;SDS011;54673;52.262;6.830;2023-03-14T03:36:33;1.70;;;1.02;;
67869;SDS011;54673;52.262;6.830;2023-03-14T03:38:59;1.87;;;0.90;;
67869;SDS011;54673;52.262;6.830;2023-03-14T03:41:25;1.60;;;1.20;;
67869;SDS011;54673;52.262;6.830;2023-03-14T03:43:50;1.67;;;1.03;;
67869;SDS011;54673;52.262;6.830;2023-03-14T03:46:16;1.48;;;0.88;;
67869;SDS011;54673;52.262;6.830;2023-03-14T03:48:41;3.00;;;1.03;;
67869;SDS011;54673;52.262;6.830;2023-03-14T03:51:07;2.83;;;1.00;;
67869;SDS011;54673;52.262;6.830;2023-03-14T03:53:41;2.37;;;0.90;;
67869;SDS011;54673;52.262;6.830;2023-03-14T03:56:07;3.13;;;1.10;;
67869;SDS011;54673;52.262;6.830;2023-03-14T03:58:33;2.43;;;1.13;;
67869;SDS011;54673;52.262;6.830;2023-03-14T04:00:59;2.47;;;1.20;;
67869;SDS011;54673;52.262;6.830;2023-03-14T04:03:25;3.20;;;1.00;;
67869;SDS011;54673;52.262;6.830;2023-03-14T04:06:04;2.90;;;0.93;;
67869;SDS011;54673;52.262;6.830;2023-03-14T04:08:31;1.08;;;0.90;;
67869;SDS011;54673;52.262;6.830;2023-03-14T04:10:57;1.40;;;0.80;;
67869;SDS011;54673;52.262;6.830;2023-03-14T04:13:24;1.67;;;0.90;;
67869;SDS011;54673;52.262;6.830;2023-03-14T04:15:51;1.93;;;0.80;;
67869;SDS011;54673;52.262;6.830;2023-03-14T04:18:17;1.92;;;1.10;;
67869;SDS011;54673;52.262;6.830;2023-03-14T04:20:44;1.37;;;0.80;;
67869;SDS011;54673;52.262;6.830;2023-03-14T04:23:10;2.13;;;1.00;;
67869;SDS011;54673;52.262;6.830;2023-03-14T04:25:35;1.98;;;0.85;;
67869;SDS011;54673;52.262;6.830;2023-03-14T04:28:01;3.17;;;0.93;;
67869;SDS011;54673;52.262;6.830;2023-03-14T04:30:28;2.00;;;0.85;;
67869;SDS011;54673;52.262;6.830;2023-03-14T04:32:54;1.63;;;0.90;;
67869;SDS011;54673;52.262;6.830;2023-03-14T04:35:20;2.53;;;0.80;;
67869;SDS011;54673;52.262;6.830;2023-03-14T04:37:45;1.97;;;0.80;;
67869;SDS011;54673;52.262;6.830;2023-03-14T04:40:14;2.38;;;0.73;;
67869;SDS011;54673;52.262;6.830;2023-03-14T04:42:40;1.90;;;0.60;;
67869;SDS011;54673;52.262;6.830;2023-03-14T04:45:06;2.53;;;1.00;;
67869;SDS011;54673;52.262;6.830;2023-03-14T04:47:32;2.20;;;0.80;;
67869;SDS011;54673;52.262;6.830;2023-03-14T04:49:58;2.30;;;1.05;;
67869;SDS011;54673;52.262;6.830;2023-03-14T04:52:23;2.33;;;0.80;;
67869;SDS011;54673;52.262;6.830;2023-03-14T04:54:50;1.60;;;0.70;;
67869;SDS011;54673;52.262;6.830;2023-03-14T04:57:15;1.60;;;0.80;;
67869;SDS011;54673;52.262;6.830;2023-03-14T04:59:41;2.20;;;0.70;;
67869;SDS011;54673;52.262;6.830;2023-03-14T05:02:07;2.30;;;0.98;;
67869;SDS011;54673;52.262;6.830;2023-03-14T05:04:32;2.13;;;1.03;;
67869;SDS011;54673;52.262;6.830;2023-03-14T05:06:58;1.33;;;0.90;;
67869;SDS011;54673;52.262;6.830;2023-03-14T05:09:25;3.10;;;1.27;;
67869;SDS011;54673;52.262;6.830;2023-03-14T05:11:51;2.28;;;1.08;;
67869;SDS011;54673;52.262;6.830;2023-03-14T05:14:16;2.03;;;0.97;;
67869;SDS011;54673;52.262;6.830;2023-03-14T05:16:42;0.90;;;0.70;;
67869;SDS011;54673;52.262;6.830;2023-03-14T05:19:07;1.33;;;1.07;;
67869;SDS011;54673;52.262;6.830;2023-03-14T05:21:33;1.57;;;0.80;;
67869;SDS011;54673;52.262;6.830;2023-03-14T05:23:59;2.22;;;0.82;;
67869;SDS011;54673;52.262;6.830;2023-03-14T05:26:24;3.23;;;1.00;;
67869;SDS011;54673;52.262;6.830;2023-03-14T05:28:50;3.03;;;1.00;;
67869;SDS011;54673;52.262;6.830;2023-03-14T05:31:15;1.43;;;0.80;;
67869;SDS011;54673;52.262;6.830;2023-03-14T05:33:41;1.53;;;1.03;;
67869;SDS011;54673;52.262;6.830;2023-03-14T05:36:07;2.50;;;0.70;;
67869;SDS011;54673;52.262;6.830;2023-03-14T05:38:32;1.67;;;0.90;;
67869;SDS011;54673;52.262;6.830;2023-03-14T05:40:58;0.88;;;0.80;;
67869;SDS011;54673;52.262;6.830;2023-03-14T05:43:24;1.93;;;0.80;;
67869;SDS011;54673;52.262;6.830;2023-03-14T05:45:49;1.63;;;0.60;;
67869;SDS011;54673;52.262;6.830;2023-03-14T05:48:15;3.67;;;0.95;;
67869;SDS011;54673;52.262;6.830;2023-03-14T05:50:41;2.03;;;0.90;;
67869;SDS011;54673;52.262;6.830;2023-03-14T05:53:07;2.45;;;0.90;;
67869;SDS011;54673;52.262;6.830;2023-03-14T05:55:32;1.77;;;0.90;;
67869;SDS011;54673;52.262;6.830;2023-03-14T05:57:58;2.15;;;1.23;;
67869;SDS011;54673;52.262;6.830;2023-03-14T06:00:24;1.30;;;0.60;;
67869;SDS011;54673;52.262;6.830;2023-03-14T06:02:49;1.83;;;0.90;;
67869;SDS011;54673;52.262;6.830;2023-03-14T06:05:15;2.35;;;0.80;;
67869;SDS011;54673;52.262;6.830;2023-03-14T06:07:40;3.00;;;0.90;;
67869;SDS011;54673;52.262;6.830;2023-03-14T06:10:06;0.93;;;0.70;;
67869;SDS011;54673;52.262;6.830;2023-03-14T06:12:32;1.63;;;0.73;;
67869;SDS011;54673;52.262;6.830;2023-03-14T06:14:57;1.13;;;0.70;;
67869;SDS011;54673;52.262;6.830;2023-03-14T06:17:23;3.80;;;0.90;;
67869;SDS011;54673;52.262;6.830;2023-03-14T06:19:48;0.97;;;0.70;;
67869;SDS011;54673;52.262;6.830;2023-03-14T06:22:14;1.50;;;0.80;;
67869;SDS011;54673;52.262;6.830;2023-03-14T06:24:40;3.77;;;1.37;;
67869;SDS011;54673;52.262;6.830;2023-03-14T06:27:05;1.10;;;0.60;;
67869;SDS011;54673;52.262;6.830;2023-03-14T06:29:31;1.50;;;0.70;;
67869;SDS011;54673;52.262;6.830;2023-03-14T06:31:57;3.63;;;0.70;;
67869;SDS011;54673;52.262;6.830;2023-03-14T06:34:22;1.97;;;0.70;;
67869;SDS011;54673;52.262;6.830;2023-03-14T06:36:48;1.70;;;1.00;;
67869;SDS011;54673;52.262;6.830;2023-03-14T06:39:13;1.60;;;0.60;;
67869;SDS011;54673;52.262;6.830;2023-03-14T06:41:39;2.13;;;0.80;;
67869;SDS011;54673;52.262;6.830;2023-03-14T06:44:05;1.23;;;0.73;;
67869;SDS011;54673;52.262;6.830;2023-03-14T06:46:30;1.63;;;0.80;;
67869;SDS011;54673;52.262;6.830;2023-03-14T06:48:56;2.13;;;0.97;;
67869;SDS011;54673;52.262;6.830;2023-03-14T06:51:21;1.70;;;0.80;;
67869;SDS011;54673;52.262;6.830;2023-03-14T06:53:47;1.83;;;0.80;;
67869;SDS011;54673;52.262;6.830;2023-03-14T06:56:12;2.23;;;0.90;;
67869;SDS011;54673;52.262;6.830;2023-03-14T06:58:38;3.33;;;1.10;;
67869;SDS011;54673;52.262;6.830;2023-03-14T07:01:03;2.97;;;0.80;;
67869;SDS011;54673;52.262;6.830;2023-03-14T07:03:29;1.80;;;0.70;;
67869;SDS011;54673;52.262;6.830;2023-03-14T07:05:55;2.80;;;0.70;;
67869;SDS011;54673;52.262;6.830;2023-03-14T07:08:21;1.17;;;0.70;;
67869;SDS011;54673;52.262;6.830;2023-03-14T07:10:46;0.77;;;0.70;;
67869;SDS011;54673;52.262;6.830;2023-03-14T07:13:12;1.38;;;0.80;;
67869;SDS011;54673;52.262;6.830;2023-03-14T07:15:38;1.10;;;0.60;;
67869;SDS011;54673;52.262;6.830;2023-03-14T07:18:03;1.20;;;0.80;;
67869;SDS011;54673;52.262;6.830;2023-03-14T07:20:29;1.45;;;0.80;;
67869;SDS011;54673;52.262;6.830;2023-03-14T07:22:57;1.30;;;0.80;;
67869;SDS011;54673;52.262;6.830;2023-03-14T07:25:24;1.88;;;0.70;;
67869;SDS011;54673;52.262;6.830;2023-03-14T07:27:50;1.73;;;0.60;;
67869;SDS011;54673;52.262;6.830;2023-03-14T07:30:16;1.27;;;0.60;;
67869;SDS011;54673;52.262;6.830;2023-03-14T07:32:41;1.70;;;0.83;;
67869;SDS011;54673;52.262;6.830;2023-03-14T07:35:07;1.98;;;0.60;;
67869;SDS011;54673;52.262;6.830;2023-03-14T07:37:33;1.57;;;0.80;;
67869;SDS011;54673;52.262;6.830;2023-03-14T07:39:58;1.77;;;0.73;;
67869;SDS011;54673;52.262;6.830;2023-03-14T07:42:24;1.27;;;0.70;;
67869;SDS011;54673;52.262;6.830;2023-03-14T07:44:49;2.43;;;0.90;;
67869;SDS011;54673;52.262;6.830;2023-03-14T07:47:15;2.17;;;0.90;;
67869;SDS011;54673;52.262;6.830;2023-03-14T07:49:41;1.60;;;0.77;;
67869;SDS011;54673;52.262;6.830;2023-03-14T07:52:06;1.40;;;0.80;;
67869;SDS011;54673;52.262;6.830;2023-03-14T07:54:32;2.10;;;0.83;;
67869;SDS011;54673;52.262;6.830;2023-03-14T07:56:58;1.40;;;0.80;;
67869;SDS011;54673;52.262;6.830;2023-03-14T07:59:25;1.40;;;0.85;;
67869;SDS011;54673;52.262;6.830;2023-03-14T08:01:51;1.75;;;0.90;;
67869;SDS011;54673;52.262;6.830;2023-03-14T08:04:17;0.97;;;0.80;;
67869;SDS011;54673;52.262;6.830;2023-03-14T08:06:42;1.67;;;0.87;;
67869;SDS011;54673;52.262;6.830;2023-03-14T08:09:08;1.40;;;0.80;;
67869;SDS011;54673;52.262;6.830;2023-03-14T08:11:33;1.30;;;0.80;;
67869;SDS011;54673;52.262;6.830;2023-03-14T08:13:59;2.27;;;0.90;;
67869;SDS011;54673;52.262;6.830;2023-03-14T08:16:24;1.50;;;0.80;;
67869;SDS011;54673;52.262;6.830;2023-03-14T08:18:50;1.20;;;0.70;;
67869;SDS011;54673;52.262;6.830;2023-03-14T08:21:16;1.83;;;0.95;;
67869;SDS011;54673;52.262;6.830;2023-03-14T08:23:41;1.43;;;0.70;;
67869;SDS011;54673;52.262;6.830;2023-03-14T08:26:07;1.90;;;0.93;;
67869;SDS011;54673;52.262;6.830;2023-03-14T08:28:33;2.35;;;0.90;;
67869;SDS011;54673;52.262;6.830;2023-03-14T08:30:59;2.07;;;0.90;;
67869;SDS011;54673;52.262;6.830;2023-03-14T08:33:25;1.45;;;0.70;;
67869;SDS011;54673;52.262;6.830;2023-03-14T08:35:52;1.73;;;0.70;;
67869;SDS011;54673;52.262;6.830;2023-03-14T08:38:22;2.87;;;0.90;;
67869;SDS011;54673;52.262;6.830;2023-03-14T08:40:48;7.15;;;1.00;;
67869;SDS011;54673;52.262;6.830;2023-03-14T08:43:14;3.37;;;0.73;;
67869;SDS011;54673;52.262;6.830;2023-03-14T08:45:40;3.87;;;0.90;;
67869;SDS011;54673;52.262;6.830;2023-03-14T08:48:05;5.60;;;1.00;;
67869;SDS011;54673;52.262;6.830;2023-03-14T08:50:31;5.60;;;0.90;;
67869;SDS011;54673;52.262;6.830;2023-03-14T08:52:57;3.93;;;1.00;;
67869;SDS011;54673;52.262;6.830;2023-03-14T08:55:24;3.17;;;1.00;;
67869;SDS011;54673;52.262;6.830;2023-03-14T08:57:52;2.70;;;0.80;;
67869;SDS011;54673;52.262;6.830;2023-03-14T09:00:18;3.33;;;0.73;;
67869;SDS011;54673;52.262;6.830;2023-03-14T09:02:44;1.27;;;0.70;;
67869;SDS011;54673;52.262;6.830;2023-03-14T09:05:10;4.97;;;0.73;;
67869;SDS011;54673;52.262;6.830;2023-03-14T09:07:36;2.40;;;0.90;;
67869;SDS011;54673;52.262;6.830;2023-03-14T09:10:02;2.75;;;0.68;;
67869;SDS011;54673;52.262;6.830;2023-03-14T09:12:28;0.97;;;0.60;;
67869;SDS011;54673;52.262;6.830;2023-03-14T09:14:54;1.77;;;0.68;;
67869;SDS011;54673;52.262;6.830;2023-03-14T09:17:19;3.03;;;0.70;;
67869;SDS011;54673;52.262;6.830;2023-03-14T09:19:45;4.97;;;1.00;;
67869;SDS011;54673;52.262;6.830;2023-03-14T09:22:11;2.75;;;0.88;;
67869;SDS011;54673;52.262;6.830;2023-03-14T09:24:36;1.17;;;0.70;;
67869;SDS011;54673;52.262;6.830;2023-03-14T09:27:02;1.75;;;0.50;;
67869;SDS011;54673;52.262;6.830;2023-03-14T09:29:27;6.27;;;0.80;;
67869;SDS011;54673;52.262;6.830;2023-03-14T09:31:53;2.53;;;0.70;;
67869;SDS011;54673;52.262;6.830;2023-03-14T09:34:19;2.28;;;0.63;;
67869;SDS011;54673;52.262;6.830;2023-03-14T09:36:45;1.77;;;0.73;;
67869;SDS011;54673;52.262;6.830;2023-03-14T09:39:11;1.10;;;0.67;;
67869;SDS011;54673;52.262;6.830;2023-03-14T09:41:41;2.70;;;0.70;;
67869;SDS011;54673;52.262;6.830;2023-03-14T09:44:11;1.60;;;0.60;;
67869;SDS011;54673;52.262;6.830;2023-03-14T09:46:38;2.08;;;0.57;;
67869;SDS011;54673;52.262;6.830;2023-03-14T09:49:12;2.23;;;0.90;;
67869;SDS011;54673;52.262;6.830;2023-03-14T09:51:45;3.10;;;0.77;;
67869;SDS011;54673;52.262;6.830;2023-03-14T09:54:32;0.95;;;0.60;;
67869;SDS011;54673;52.262;6.830;2023-03-14T09:57:02;1.20;;;0.73;;
67869;SDS011;54673;52.262;6.830;2023-03-14T09:59:29;1.42;;;0.55;;
67869;SDS011;54673;52.262;6.830;2023-03-14T10:01:56;4.20;;;0.70;;
67869;SDS011;54673;52.262;6.830;2023-03-14T10:04:35;2.17;;;0.50;;
67869;SDS011;54673;52.262;6.830;2023-03-14T10:07:07;3.70;;;1.23;;
67869;SDS011;54673;52.262;6.830;2023-03-14T10:09:36;1.80;;;0.60;;
67869;SDS011;54673;52.262;6.830;2023-03-14T10:12:02;0.70;;;0.70;;
67869;SDS011;54673;52.262;6.830;2023-03-14T10:14:32;1.07;;;0.57;;
67869;SDS011;54673;52.262;6.830;2023-03-14T10:17:09;2.50;;;0.60;;
67869;SDS011;54673;52.262;6.830;2023-03-14T10:19:37;1.95;;;0.60;;
67869;SDS011;54673;52.262;6.830;2023-03-14T10:22:15;4.23;;;0.80;;
67869;SDS011;54673;52.262;6.830;2023-03-14T10:24:44;3.78;;;0.80;;
67869;SDS011;54673;52.262;6.830;2023-03-14T10:27:20;3.70;;;1.00;;
67869;SDS011;54673;52.262;6.830;2023-03-14T10:29:54;1.83;;;0.70;;
67869;SDS011;54673;52.262;6.830;2023-03-14T10:32:21;1.60;;;0.60;;
67869;SDS011;54673;52.262;6.830;2023-03-14T10:37:47;2.13;;;0.55;;
67869;SDS011;54673;52.262;6.830;2023-03-14T10:40:15;3.50;;;0.90;;
67869;SDS011;54673;52.262;6.830;2023-03-14T10:42:43;1.63;;;0.60;;
67869;SDS011;54673;52.262;6.830;2023-03-14T10:45:31;7.80;;;0.85;;
67869;SDS011;54673;52.262;6.830;2023-03-14T10:47:58;0.83;;;0.50;;
67869;SDS011;54673;52.262;6.830;2023-03-14T10:50:31;2.45;;;0.60;;
67869;SDS011;54673;52.262;6.830;2023-03-14T10:52:57;1.10;;;0.60;;
67869;SDS011;54673;52.262;6.830;2023-03-14T10:55:38;3.80;;;0.60;;
67869;SDS011;54673;52.262;6.830;2023-03-14T10:58:16;2.10;;;0.73;;
67869;SDS011;54673;52.262;6.830;2023-03-14T11:00:47;1.77;;;0.67;;
67869;SDS011;54673;52.262;6.830;2023-03-14T11:03:35;1.13;;;0.70;;
67869;SDS011;54673;52.262;6.830;2023-03-14T11:06:18;1.17;;;0.80;;
67869;SDS011;54673;52.262;6.830;2023-03-14T11:08:57;2.85;;;0.55;;
67869;SDS011;54673;52.262;6.830;2023-03-14T11:11:30;2.17;;;0.68;;
67869;SDS011;54673;52.262;6.830;2023-03-14T11:22:16;3.53;;;0.88;;
67869;SDS011;54673;52.262;6.830;2023-03-14T11:35:33;2.33;;;0.80;;
67869;SDS011;54673;52.262;6.830;2023-03-14T11:38:14;1.55;;;0.70;;
67869;SDS011;54673;52.262;6.830;2023-03-14T11:40:59;2.23;;;0.83;;
67869;SDS011;54673;52.262;6.830;2023-03-14T11:43:32;4.38;;;1.10;;
67869;SDS011;54673;52.262;6.830;2023-03-14T11:46:04;1.83;;;0.70;;
67869;SDS011;54673;52.262;6.830;2023-03-14T11:48:38;2.60;;;0.90;;
67869;SDS011;54673;52.262;6.830;2023-03-14T11:51:41;4.20;;;0.82;;
67869;SDS011;54673;52.262;6.830;2023-03-14T11:57:18;3.05;;;0.85;;
67869;SDS011;54673;52.262;6.830;2023-03-14T11:59:47;3.93;;;0.80;;
67869;SDS011;54673;52.262;6.830;2023-03-14T12:11:18;2.78;;;0.80;;
67869;SDS011;54673;52.262;6.830;2023-03-14T12:13:48;3.13;;;0.70;;
67869;SDS011;54673;52.262;6.830;2023-03-14T12:18:48;2.13;;;1.02;;
67869;SDS011;54673;52.262;6.830;2023-03-14T12:21:14;3.83;;;0.80;;
67869;SDS011;54673;52.262;6.830;2023-03-14T12:26:20;4.00;;;0.90;;
67869;SDS011;54673;52.262;6.830;2023-03-14T12:45:14;4.30;;;1.10;;
67869;SDS011;54673;52.262;6.830;2023-03-14T12:47:46;5.37;;;1.10;;
67869;SDS011;54673;52.262;6.830;2023-03-14T12:50:16;4.18;;;1.00;;
67869;SDS011;54673;52.262;6.830;2023-03-14T12:52:55;2.27;;;1.00;;
67869;SDS011;54673;52.262;6.830;2023-03-14T12:55:33;4.25;;;1.00;;
67869;SDS011;54673;52.262;6.830;2023-03-14T12:58:28;4.63;;;1.20;;
67869;SDS011;54673;52.262;6.830;2023-03-14T13:01:01;2.17;;;1.10;;
67869;SDS011;54673;52.262;6.830;2023-03-14T13:11:54;4.20;;;1.38;;
67869;SDS011;54673;52.262;6.830;2023-03-14T13:14:22;3.40;;;1.10;;
67869;SDS011;54673;52.262;6.830;2023-03-14T13:16:48;2.78;;;1.00;;
67869;SDS011;54673;52.262;6.830;2023-03-14T13:19:17;3.13;;;1.40;;
67869;SDS011;54673;52.262;6.830;2023-03-14T13:21:46;4.20;;;1.30;;
67869;SDS011;54673;52.262;6.830;2023-03-14T13:24:21;3.92;;;1.42;;
67869;SDS011;54673;52.262;6.830;2023-03-14T13:26:48;3.90;;;1.10;;
67869;SDS011;54673;52.262;6.830;2023-03-14T13:31:49;2.87;;;1.00;;
67869;SDS011;54673;52.262;6.830;2023-03-14T13:34:17;2.03;;;0.90;;
67869;SDS011;54673;52.262;6.830;2023-03-14T13:36:43;4.95;;;1.13;;
67869;SDS011;54673;52.262;6.830;2023-03-14T13:39:13;3.77;;;0.93;;
67869;SDS011;54673;52.262;6.830;2023-03-14T13:41:42;7.80;;;1.20;;
67869;SDS011;54673;52.262;6.830;2023-03-14T13:44:12;9.97;;;1.20;;
67869;SDS011;54673;52.262;6.830;2023-03-14T13:46:41;10.32;;;1.20;;
67869;SDS011;54673;52.262;6.830;2023-03-14T13:49:09;16.77;;;1.13;;
67869;SDS011;54673;52.262;6.830;2023-03-14T13:51:41;13.70;;;1.17;;
67869;SDS011;54673;52.262;6.830;2023-03-14T13:54:20;9.75;;;1.35;;
67869;SDS011;54673;52.262;6.830;2023-03-14T13:56:47;4.50;;;0.90;;
67869;SDS011;54673;52.262;6.830;2023-03-14T13:59:27;8.40;;;0.90;;
67869;SDS011;54673;52.262;6.830;2023-03-14T14:01:54;10.63;;;1.20;;
67869;SDS011;54673;52.262;6.830;2023-03-14T14:04:22;5.00;;;0.90;;
67869;SDS011;54673;52.262;6.830;2023-03-14T14:06:52;11.15;;;1.30;;
67869;SDS011;54673;52.262;6.830;2023-03-14T14:09:22;5.97;;;0.90;;
67869;SDS011;54673;52.262;6.830;2023-03-14T14:11:52;6.25;;;1.30;;
67869;SDS011;54673;52.262;6.830;2023-03-14T14:14:27;6.33;;;1.50;;
67869;SDS011;54673;52.262;6.830;2023-03-14T14:17:00;5.00;;;1.02;;
67869;SDS011;54673;52.262;6.830;2023-03-14T14:19:29;2.08;;;1.00;;
67869;SDS011;54673;52.262;6.830;2023-03-14T14:21:57;3.50;;;0.97;;
67869;SDS011;54673;52.262;6.830;2023-03-14T14:24:24;3.45;;;1.27;;
67869;SDS011;54673;52.262;6.830;2023-03-14T14:26:54;2.77;;;0.93;;
67869;SDS011;54673;52.262;6.830;2023-03-14T14:29:31;4.45;;;0.90;;
67869;SDS011;54673;52.262;6.830;2023-03-14T14:37:05;6.00;;;1.05;;
67869;SDS011;54673;52.262;6.830;2023-03-14T14:39:39;6.13;;;1.03;;
67869;SDS011;54673;52.262;6.830;2023-03-14T14:42:12;2.53;;;0.82;;
67869;SDS011;54673;52.262;6.830;2023-03-14T14:44:40;4.10;;;1.37;;
67869;SDS011;54673;52.262;6.830;2023-03-14T14:47:11;5.00;;;1.00;;
67869;SDS011;54673;52.262;6.830;2023-03-14T14:49:43;5.18;;;0.98;;
67869;SDS011;54673;52.262;6.830;2023-03-14T14:52:17;3.17;;;1.00;;
67869;SDS011;54673;52.262;6.830;2023-03-14T14:54:45;4.07;;;1.00;;
67869;SDS011;54673;52.262;6.830;2023-03-14T14:57:26;5.45;;;0.93;;
67869;SDS011;54673;52.262;6.830;2023-03-14T14:59:55;5.13;;;1.13;;
67869;SDS011;54673;52.262;6.830;2023-03-14T15:02:38;3.93;;;1.10;;
67869;SDS011;54673;52.262;6.830;2023-03-14T15:05:16;5.18;;;1.00;;
67869;SDS011;54673;52.262;6.830;2023-03-14T15:07:49;1.67;;;0.98;;
67869;SDS011;54673;52.262;6.830;2023-03-14T15:10:16;1.80;;;0.87;;
67869;SDS011;54673;52.262;6.830;2023-03-14T15:12:43;3.50;;;0.90;;
67869;SDS011;54673;52.262;6.830;2023-03-14T15:15:09;2.30;;;0.93;;
67869;SDS011;54673;52.262;6.830;2023-03-14T15:17:36;2.80;;;1.00;;
67869;SDS011;54673;52.262;6.830;2023-03-14T15:20:03;2.40;;;0.77;;
67869;SDS011;54673;52.262;6.830;2023-03-14T15:22:29;1.52;;;0.90;;
67869;SDS011;54673;52.262;6.830;2023-03-14T15:24:55;2.70;;;1.13;;
67869;SDS011;54673;52.262;6.830;2023-03-14T15:27:21;3.05;;;1.08;;
67869;SDS011;54673;52.262;6.830;2023-03-14T15:29:47;2.40;;;1.00;;
67869;SDS011;54673;52.262;6.830;2023-03-14T15:32:13;3.70;;;1.67;;
67869;SDS011;54673;52.262;6.830;2023-03-14T15:34:41;2.30;;;1.30;;
67869;SDS011;54673;52.262;6.830;2023-03-14T15:37:13;3.33;;;1.10;;
67869;SDS011;54673;52.262;6.830;2023-03-14T15:39:41;1.65;;;0.98;;
67869;SDS011;54673;52.262;6.830;2023-03-14T15:42:07;5.82;;;1.20;;
67869;SDS011;54673;52.262;6.830;2023-03-14T15:44:33;3.27;;;1.20;;
67869;SDS011;54673;52.262;6.830;2023-03-14T15:46:59;3.30;;;1.10;;
67869;SDS011;54673;52.262;6.830;2023-03-14T15:49:24;5.60;;;1.03;;
67869;SDS011;54673;52.262;6.830;2023-03-14T15:51:50;3.28;;;1.15;;
67869;SDS011;54673;52.262;6.830;2023-03-14T15:54:15;5.43;;;1.30;;
67869;SDS011;54673;52.262;6.830;2023-03-14T15:56:41;3.92;;;1.00;;
67869;SDS011;54673;52.262;6.830;2023-03-14T15:59:07;5.53;;;1.10;;
67869;SDS011;54673;52.262;6.830;2023-03-14T16:01:32;2.37;;;1.10;;
67869;SDS011;54673;52.262;6.830;2023-03-14T16:03:58;6.30;;;1.60;;
67869;SDS011;54673;52.262;6.830;2023-03-14T16:06:23;2.87;;;1.10;;
67869;SDS011;54673;52.262;6.830;2023-03-14T16:08:49;6.88;;;1.23;;
67869;SDS011;54673;52.262;6.830;2023-03-14T16:11:15;4.43;;;1.30;;
67869;SDS011;54673;52.262;6.830;2023-03-14T16:13:42;5.05;;;1.30;;
67869;SDS011;54673;52.262;6.830;2023-03-14T16:16:09;5.38;;;1.35;;